Hovedside
METAR-TAF:

METAR-TAF

Lufthavner :

Roatán, Honduras

breddegrad: 16-19N, lengdegrad: 086-31W, høyde over havet: 5 m

Gjeldene værobservasjon

Denne rapporten ble laget for 45 minutter siden, klokken 06:00 UTC
Vind 22 kt fra Øst
Temperatur 29°C
Luftfuktighet 84%
Trykk 1010 hPa
Sikt: 7000 m
Få skyer i en høyde av 3000 ft

METAR: MHRO 270600Z 09022KT 7000 FEW030 29/26 Q1010 A2983 NOSIG

Tid: 00:45 (06:45 UTC)

Varsel

Denne rapporten ble laget for 3 timer og 15 minutter siden, klokken 03:30 UTC
Varsel gyldig fra 27. klokken 06 UTC til 28. klokken 06 UTC
Vind 20 kt fra Øst
Sikt: 6000 m
Få skyer i en høyde av 2600 ft
Blir
fra 27. klokken 15 UTC til 27. klokken 17 UTC
Vind 8 kt fra Øst
Sikt: 4000 m
røyk,

TAF: MHRO 270330Z 2706/2806 10020KT 6000 FEW026 TX32/2619Z TN28/2712Z BECMG 2715/2717 09008KT 4000 FU

Værobservasjoner og værvarsel for over 4000 flyplasser (METAR- og TAF-rapporter).

Tilgjengelige stasjoner er representert av de røde og gule prikkene på kartet.

Hold musepekeren over prikken for å se navnet på stasjonen.

Klikk så for å se værobservasjoner og -varsler.

For å forandre kartet kan du klikke på den grønne knappen med svart kryss for å zoome inn, på den grønne knappen med strek for å zoome ut, eller på de grønne pilene for å se tilstøtende kart.


METAR-TAF: